Time;durP1;ratioP1;P1;durP2;ratioP2;P2;SDS_P1;SDS_P2;PMS_P1;PMS_P2;Temp;Humidity;BMP_temperature;BMP_pressure;BME280_temperature;BME280_humidity;BME280_pressure;Samples;Min_cycle;Max_cycle;Signal;HPM_P1;HPM_P2
2023/05/10 00:00:26;;;;;;;18.67;15.80;;;;;;;11.89;100.00;100704.44;4988922;28;20045;-64
2023/05/10 00:02:51;;;;;;;20.45;16.65;;;;;;;11.89;100.00;100698.41;4987867;28;20818;-64
2023/05/10 00:05:17;;;;;;;19.25;16.65;;;;;;;11.89;100.00;100703.59;4988203;28;20030;-64
2023/05/10 00:07:44;;;;;;;19.88;16.08;;;;;;;11.88;100.00;100699.22;4986845;28;20675;-64
2023/05/10 00:10:10;;;;;;;17.65;15.82;;;;;;;11.89;100.00;100703.59;4987367;28;20061;-64
2023/05/10 00:12:36;;;;;;;19.42;15.90;;;;;;;11.87;100.00;100710.47;4976813;28;20034;-64
2023/05/10 00:15:02;;;;;;;19.60;16.05;;;;;;;11.85;100.00;100709.53;4988069;28;20100;-64
2023/05/10 00:17:28;;;;;;;19.75;15.98;;;;;;;11.84;100.00;100699.97;4987851;28;20030;-64
2023/05/10 00:19:54;;;;;;;21.52;17.15;;;;;;;11.83;100.00;100703.44;4988138;28;20037;-64
2023/05/10 00:22:19;;;;;;;23.90;18.52;;;;;;;11.83;100.00;100700.84;4987582;28;20022;-64
2023/05/10 00:24:44;;;;;;;25.58;19.38;;;;;;;11.82;100.00;100701.69;4987756;28;20053;-64
2023/05/10 00:27:10;;;;;;;23.42;19.75;;;;;;;11.81;100.00;100700.78;4987591;28;20291;-64
2023/05/10 00:29:35;;;;;;;25.60;20.25;;;;;;;11.79;100.00;100691.19;4986831;28;20045;-64
2023/05/10 00:32:00;;;;;;;24.98;18.50;;;;;;;11.76;100.00;100692.88;4983477;28;20023;-64
2023/05/10 00:34:26;;;;;;;25.23;19.92;;;;;;;11.72;100.00;100696.25;4986250;28;20034;-64
2023/05/10 00:36:51;;;;;;;26.38;19.50;;;;;;;11.72;100.00;100705.75;4987328;28;20434;-64
2023/05/10 00:39:16;;;;;;;24.13;18.83;;;;;;;11.67;100.00;100703.06;4987226;28;20130;-64
2023/05/10 00:41:41;;;;;;;24.65;18.50;;;;;;;11.64;100.00;100705.53;4976950;28;20023;-64
2023/05/10 00:44:07;;;;;;;24.67;19.85;;;;;;;11.61;100.00;100708.06;4976627;28;20406;-64
2023/05/10 00:46:32;;;;;;;25.55;19.25;;;;;;;11.59;100.00;100710.63;4981958;28;20031;-64
2023/05/10 00:48:58;;;;;;;29.52;22.20;;;;;;;11.58;100.00;100703.69;4977504;28;20031;-64
2023/05/10 00:51:24;;;;;;;28.02;21.45;;;;;;;11.59;100.00;100699.38;4973218;28;20026;-64
2023/05/10 00:53:50;;;;;;;28.50;21.02;;;;;;;11.61;100.00;100698.59;4986785;28;20489;-64
2023/05/10 00:56:15;;;;;;;26.95;21.65;;;;;;;11.64;100.00;100695.16;4987903;28;20105;-64
2023/05/10 00:58:41;;;;;;;27.30;21.58;;;;;;;11.65;100.00;100702.13;4978457;28;20026;-64
2023/05/10 01:01:07;;;;;;;28.05;21.85;;;;;;;11.66;100.00;100701.28;4980583;28;20073;-64
2023/05/10 01:03:33;;;;;;;30.35;23.83;;;;;;;11.66;100.00;100693.50;4971461;28;20098;-64
2023/05/10 01:05:58;;;;;;;27.95;22.52;;;;;;;11.67;100.00;100697.88;4987232;28;20133;-64
2023/05/10 01:08:25;;;;;;;28.08;22.55;;;;;;;11.68;100.00;100689.22;4975271;28;20037;-64
2023/05/10 01:10:52;;;;;;;33.72;23.70;;;;;;;11.67;100.00;100700.47;4987480;28;20475;-64
2023/05/10 01:13:29;;;;;;;33.22;24.38;;;;;;;11.65;100.00;100699.53;4987556;28;20111;-64
2023/05/10 01:15:55;;;;;;;33.63;24.45;;;;;;;11.62;100.00;100694.28;4975878;28;20097;-64
2023/05/10 01:18:21;;;;;;;33.42;25.58;;;;;;;11.61;100.00;100693.38;4985902;28;20054;-64
2023/05/10 01:20:53;;;;;;;39.90;28.25;;;;;;;11.59;100.00;100699.38;4977025;28;20031;-64
2023/05/10 01:23:44;;;;;;;42.63;28.23;;;;;;;11.60;100.00;100691.63;4987881;28;20058;-64
2023/05/10 01:26:33;;;;;;;42.53;29.13;;;;;;;11.59;100.00;100691.56;4978150;28;20026;-64
2023/05/10 01:29:14;;;;;;;45.58;30.40;;;;;;;11.59;100.00;100688.97;4990261;28;20018;-64
2023/05/10 01:31:58;;;;;;;50.60;32.78;;;;;;;11.61;100.00;100689.91;4983430;28;20056;-64
2023/05/10 01:34:27;;;;;;;53.17;33.60;;;;;;;11.63;100.00;100685.63;4991291;28;20445;-64
2023/05/10 01:37:07;;;;;;;63.78;39.30;;;;;;;11.65;100.00;100686.56;4989670;28;20041;-64
2023/05/10 01:39:57;;;;;;;69.95;42.72;;;;;;;11.65;100.00;100686.56;4991359;28;20022;-64
2023/05/10 01:42:27;;;;;;;79.30;45.38;;;;;;;11.67;100.00;100690.06;4980858;28;20508;-64
2023/05/10 01:45:07;;;;;;;77.38;44.03;;;;;;;11.70;100.00;100695.34;4990225;28;20033;-64
2023/05/10 01:47:40;;;;;;;78.57;44.50;;;;;;;11.71;100.00;100686.69;4991336;28;20029;-64
2023/05/10 01:50:14;;;;;;;83.63;45.90;;;;;;;11.70;100.00;100697.94;4990767;28;20034;-64
2023/05/10 01:52:43;;;;;;;87.47;48.17;;;;;;;11.72;100.00;100685.88;4990588;28;20104;-64
2023/05/10 01:55:13;;;;;;;84.60;47.10;;;;;;;11.74;100.00;100685.91;4990364;28;20022;-64
2023/05/10 01:57:42;;;;;;;81.03;47.75;;;;;;;11.76;100.00;100699.81;4990651;28;20426;-64
2023/05/10 02:00:08;;;;;;;87.90;46.15;;;;;;;11.77;100.00;100694.66;4989978;28;20037;-64
2023/05/10 02:02:38;;;;;;;85.63;48.67;;;;;;;11.79;100.00;100691.19;4990356;28;20068;-64
2023/05/10 02:05:05;;;;;;;84.53;47.85;;;;;;;11.81;100.00;100692.13;4989179;28;20041;-64
2023/05/10 02:07:33;;;;;;;78.00;46.55;;;;;;;11.81;100.00;100689.53;4987250;28;20482;-64
2023/05/10 02:09:59;;;;;;;78.25;45.47;;;;;;;11.81;100.00;100695.59;4990961;28;20044;-64
2023/05/10 02:12:25;;;;;;;75.90;44.72;;;;;;;11.82;100.00;100696.50;4989547;28;20026;-64
2023/05/10 02:14:53;;;;;;;77.70;47.58;;;;;;;11.83;100.00;100711.22;4981124;28;20125;-64
2023/05/10 02:17:20;;;;;;;78.10;45.40;;;;;;;11.84;100.00;100699.97;4970286;28;20042;-64
2023/05/10 02:19:47;;;;;;;73.45;43.80;;;;;;;11.85;100.00;100705.25;4988960;28;20034;-64
2023/05/10 02:22:14;;;;;;;74.32;45.50;;;;;;;11.87;100.00;100710.47;4987306;28;20060;-64
2023/05/10 02:24:40;;;;;;;70.18;43.85;;;;;;;11.88;100.00;100722.59;4967817;28;20113;-64
2023/05/10 02:27:06;;;;;;;69.43;43.67;;;;;;;11.89;100.00;100713.97;4983132;28;20459;-64
2023/05/10 02:29:33;;;;;;;72.75;44.53;;;;;;;11.89;100.00;100708.78;4988375;28;20069;-64
2023/05/10 02:31:59;;;;;;;73.68;47.63;;;;;;;11.89;100.00;100720.03;4983769;28;20022;-64
2023/05/10 02:34:29;;;;;;;72.15;47.13;;;;;;;11.90;100.00;100723.50;4988799;28;20030;-64
2023/05/10 02:36:56;;;;;;;79.32;49.55;;;;;;;11.89;100.00;100712.25;4987608;28;20149;-64
2023/05/10 02:39:22;;;;;;;82.65;50.85;;;;;;;11.89;100.00;100719.19;4987694;28;20149;-64
2023/05/10 02:41:49;;;;;;;83.60;51.70;;;;;;;11.90;100.00;100720.91;4987120;28;20030;-64
2023/05/10 02:44:16;;;;;;;80.28;49.90;;;;;;;11.92;100.00;100715.75;4988131;28;20041;-64
2023/05/10 02:46:43;;;;;;;82.63;52.10;;;;;;;11.91;100.00;100720.06;4987968;28;20034;-64
2023/05/10 02:49:08;;;;;;;83.53;51.30;;;;;;;11.91;100.00;100727.00;4970609;28;20463;-64
2023/05/10 02:51:40;;;;;;;79.93;52.85;;;;;;;11.90;100.00;100726.09;4988227;28;20018;-64
2023/05/10 02:54:18;;;;;;;80.38;51.38;;;;;;;11.89;100.00;100713.97;4986926;28;20049;-64
2023/05/10 02:56:50;;;;;;;76.65;49.78;;;;;;;11.87;100.00;100710.47;4975965;28;20105;-64
2023/05/10 02:59:15;;;;;;;76.78;52.35;;;;;;;11.86;100.00;100713.88;4988421;28;20614;-64
2023/05/10 03:01:41;;;;;;;81.63;51.85;;;;;;;11.86;100.00;100719.06;4988942;28;20034;-64
2023/05/10 03:04:07;;;;;;;80.32;53.22;;;;;;;11.84;100.00;100718.16;4973705;28;20475;-64
2023/05/10 03:06:32;;;;;;;82.40;52.78;;;;;;;11.81;100.00;100716.38;4971247;28;20545;-64
2023/05/10 03:08:58;;;;;;;82.90;54.20;;;;;;;11.79;100.00;100719.75;4982670;28;20101;-64
2023/05/10 03:11:45;;;;;;;80.22;52.85;;;;;;;11.76;100.00;100718.84;4981750;28;20033;-64
2023/05/10 03:14:34;;;;;;;81.00;51.20;;;;;;;11.73;100.00;100718.75;4984365;28;20126;-64
2023/05/10 03:17:11;;;;;;;77.70;51.83;;;;;;;11.74;100.00;100725.72;4946014;28;1068186;-64
2023/05/10 03:19:54;;;;;;;75.28;50.08;;;;;;;11.72;100.00;100717.03;4986799;28;20422;-64
2023/05/10 03:22:32;;;;;;;73.68;48.92;;;;;;;11.72;100.00;100726.53;4976602;28;20267;-64
2023/05/10 03:24:59;;;;;;;75.03;47.95;;;;;;;11.71;100.00;100722.19;4989117;28;20023;-63
2023/05/10 03:27:26;;;;;;;75.68;51.20;;;;;;;11.71;100.00;100729.97;4982988;28;20474;-64
2023/05/10 03:29:54;;;;;;;80.03;50.97;;;;;;;11.71;100.00;100725.63;4981251;28;20028;-64
2023/05/10 03:32:20;;;;;;;69.90;47.53;;;;;;;11.73;100.00;100733.44;4988400;28;20486;-64
2023/05/10 03:34:45;;;;;;;73.75;48.00;;;;;;;11.75;100.00;100734.38;4988444;28;20124;-64
2023/05/10 03:37:10;;;;;;;70.70;46.55;;;;;;;11.73;100.00;100734.34;4988891;28;20395;-64
2023/05/10 03:39:36;;;;;;;73.22;47.22;;;;;;;11.75;100.00;100744.75;4989285;28;20521;-64
2023/05/10 03:42:01;;;;;;;68.65;45.70;;;;;;;11.73;100.00;100734.34;4965582;28;20041;-64
2023/05/10 03:44:26;;;;;;;67.28;44.92;;;;;;;11.72;100.00;100742.97;4985984;28;20851;-64
2023/05/10 03:46:52;;;;;;;67.35;45.05;;;;;;;11.73;100.00;100742.13;4986350;28;20030;-64
2023/05/10 03:49:17;;;;;;;64.47;46.58;;;;;;;11.74;100.00;100746.50;4970402;28;20305;-64
2023/05/10 03:51:42;;;;;;;63.20;43.40;;;;;;;11.76;100.00;100747.38;4981975;28;20487;-64
2023/05/10 03:54:08;;;;;;;64.90;42.13;;;;;;;11.75;100.00;100745.66;4982730;28;20026;-64
2023/05/10 03:56:33;;;;;;;64.43;43.92;;;;;;;11.76;100.00;100744.78;4988747;28;20435;-64
2023/05/10 03:58:58;;;;;;;62.42;42.55;;;;;;;11.76;100.00;100744.78;4988327;28;20038;-64
2023/05/10 04:01:23;;;;;;;66.93;43.47;;;;;;;11.74;100.00;100751.69;4987042;28;20571;-64
2023/05/10 04:03:49;;;;;;;67.75;43.58;;;;;;;11.75;100.00;100752.53;4988497;28;20027;-64
2023/05/10 04:06:14;;;;;;;65.93;44.03;;;;;;;11.75;100.00;100745.66;4983827;28;20058;-64
2023/05/10 04:08:39;;;;;;;68.85;44.05;;;;;;;11.75;100.00;100748.25;4979940;28;20029;-64
2023/05/10 04:11:07;;;;;;;67.88;41.35;;;;;;;11.75;100.00;100756.03;4984781;28;20034;-64
2023/05/10 04:13:32;;;;;;;64.47;41.45;;;;;;;11.76;100.00;100760.38;4986562;28;20439;-64
2023/05/10 04:15:58;;;;;;;68.43;43.60;;;;;;;11.75;100.00;100761.22;4985828;28;20129;-64
2023/05/10 04:18:23;;;;;;;71.60;44.67;;;;;;;11.75;100.00;100750.84;4985578;28;20030;-64
2023/05/10 04:20:48;;;;;;;79.18;46.40;;;;;;;11.75;100.00;100763.81;4981373;28;20065;-64
2023/05/10 04:23:15;;;;;;;81.50;49.22;;;;;;;11.76;100.00;100755.19;4977966;28;20030;-64
2023/05/10 04:25:40;;;;;;;91.22;53.50;;;;;;;11.77;100.00;100756.06;4984716;28;20026;-64
2023/05/10 04:28:06;;;;;;;95.57;53.78;;;;;;;11.76;100.00;100755.19;4985938;28;20037;-64
2023/05/10 04:30:31;;;;;;;96.97;55.20;;;;;;;11.77;100.00;100756.06;4984830;28;20088;-64
2023/05/10 04:32:56;;;;;;;95.05;55.78;;;;;;;11.77;100.00;100756.06;4985328;28;20022;-64
2023/05/10 04:35:21;;;;;;;94.07;54.17;;;;;;;11.76;100.00;100755.19;4981374;28;20018;-64
2023/05/10 04:37:47;;;;;;;96.38;53.38;;;;;;;11.77;100.00;100767.34;4975799;28;20465;-64
2023/05/10 04:40:12;;;;;;;74.28;46.05;;;;;;;11.73;100.00;100760.31;4980527;28;20022;-64
2023/05/10 04:42:40;;;;;;;74.18;46.72;;;;;;;11.73;100.00;100767.19;4986858;28;20510;-64
2023/05/10 04:45:06;;;;;;;67.75;43.50;;;;;;;11.71;100.00;100766.31;4983392;28;20039;-64
2023/05/10 04:47:32;;;;;;;67.70;44.67;;;;;;;11.71;100.00;100776.69;4985334;28;20083;-64
2023/05/10 04:49:58;;;;;;;65.85;42.15;;;;;;;11.70;100.00;100770.63;5000053;28;20018;-64
2023/05/10 04:52:23;;;;;;;59.08;38.90;;;;;;;11.70;100.00;100778.41;4985901;28;20383;-64
2023/05/10 04:54:48;;;;;;;46.15;32.90;;;;;;;11.69;100.00;100779.25;4987462;28;20026;-64
2023/05/10 04:57:14;;;;;;;45.08;31.38;;;;;;;11.63;100.00;100781.66;4987313;28;20510;-64
2023/05/10 04:59:39;;;;;;;42.25;31.40;;;;;;;11.63;100.00;100782.56;4987305;28;20026;-63
2023/05/10 05:02:05;;;;;;;43.63;30.27;;;;;;;11.63;100.00;100785.16;4983612;28;20030;-64
2023/05/10 05:04:31;;;;;;;39.20;29.75;;;;;;;11.62;100.00;100785.13;4985819;28;20084;-64
2023/05/10 05:06:56;;;;;;;40.55;31.40;;;;;;;11.61;100.00;100780.75;4987096;28;20483;-64
2023/05/10 05:09:21;;;;;;;37.95;29.40;;;;;;;11.62;100.00;100783.38;4954165;28;20117;-64
2023/05/10 05:11:47;;;;;;;38.70;28.98;;;;;;;11.61;100.00;100783.34;4978527;28;20015;-64
2023/05/10 05:14:12;;;;;;;35.80;28.25;;;;;;;11.62;100.00;100785.13;4985290;28;20030;-64
2023/05/10 05:16:37;;;;;;;43.05;29.98;;;;;;;11.63;100.00;100785.16;4987460;28;20043;-64
2023/05/10 05:19:03;;;;;;;35.85;27.60;;;;;;;11.63;100.00;100789.47;4985226;28;20030;-64
2023/05/10 05:21:29;;;;;;;38.20;28.77;;;;;;;11.64;100.00;100791.19;4970267;28;20049;-64
2023/05/10 05:23:54;;;;;;;37.15;27.80;;;;;;;11.64;100.00;100796.38;4983009;28;20479;-64
2023/05/10 05:26:19;;;;;;;34.72;27.05;;;;;;;11.66;100.00;100797.31;4978729;28;20106;-64
2023/05/10 05:28:45;;;;;;;35.85;28.85;;;;;;;11.66;100.00;100797.31;4987353;28;20105;-64
2023/05/10 05:31:10;;;;;;;39.17;29.17;;;;;;;11.67;100.00;100801.69;4987516;28;20434;-64
2023/05/10 05:33:36;;;;;;;38.83;28.52;;;;;;;11.68;100.00;100800.84;4986330;28;20053;-64
2023/05/10 05:36:03;;;;;;;40.13;29.88;;;;;;;11.69;100.00;100800.03;4985878;28;20018;-64
2023/05/10 05:38:28;;;;;;;37.08;28.13;;;;;;;11.69;100.00;100800.03;4986131;28;20022;-64
2023/05/10 05:40:53;;;;;;;34.13;27.30;;;;;;;11.69;100.00;100805.22;4985701;28;20121;-64
2023/05/10 05:43:18;;;;;;;35.60;27.60;;;;;;;11.69;100.00;100810.41;4984358;28;20022;-64
2023/05/10 05:45:44;;;;;;;46.08;30.50;;;;;;;11.69;100.00;100805.22;4985625;28;20018;-64
2023/05/10 05:48:09;;;;;;;39.95;28.23;;;;;;;11.70;100.00;100806.06;4973107;28;20031;-64
2023/05/10 05:50:35;;;;;;;37.47;27.17;;;;;;;11.68;100.00;100802.53;4985394;28;20158;-64
2023/05/10 05:53:00;;;;;;;37.03;28.30;;;;;;;11.68;100.00;100805.13;4972214;28;20030;-64
2023/05/10 05:55:26;;;;;;;36.22;29.23;;;;;;;11.69;100.00;100804.31;4987322;28;20026;-64
2023/05/10 05:57:51;;;;;;;37.40;29.35;;;;;;;11.72;100.00;100805.28;4986094;28;20042;-64
2023/05/10 06:00:17;;;;;;;33.58;26.98;;;;;;;11.71;100.00;100810.44;4978866;28;20388;-64
2023/05/10 06:02:42;;;;;;;41.30;28.63;;;;;;;11.74;100.00;100814.00;4982972;28;20030;-64
2023/05/10 06:05:08;;;;;;;36.33;29.02;;;;;;;11.77;100.00;100818.38;4987604;28;20027;-64
2023/05/10 06:07:33;;;;;;;32.45;26.25;;;;;;;11.81;100.00;100821.94;4974413;28;20026;-64
2023/05/10 06:09:59;;;;;;;36.95;28.88;;;;;;;11.81;100.00;100829.72;4988501;28;20026;-64
2023/05/10 06:12:24;;;;;;;37.05;27.25;;;;;;;11.79;100.00;100829.69;4989619;28;20027;-64
2023/05/10 06:14:49;;;;;;;37.40;28.67;;;;;;;11.82;100.00;100827.16;4980639;28;20072;-64
2023/05/10 06:17:14;;;;;;;38.88;28.80;;;;;;;11.87;100.00;100829.91;4990109;28;20387;-64
2023/05/10 06:19:40;;;;;;;32.97;26.98;;;;;;;11.88;100.00;100831.63;4989546;28;20018;-64
2023/05/10 06:22:05;;;;;;;36.70;26.92;;;;;;;11.91;100.00;100836.91;4977197;28;20031;-64
2023/05/10 06:24:30;;;;;;;34.65;27.92;;;;;;;11.94;100.00;100830.94;4990075;28;20022;-64
2023/05/10 06:26:56;;;;;;;32.08;26.08;;;;;;;11.96;100.00;100830.13;4987701;28;20069;-64
2023/05/10 06:29:21;;;;;;;38.47;28.20;;;;;;;12.01;100.00;100827.66;4980069;28;20026;-64
2023/05/10 06:31:47;;;;;;;40.05;28.38;;;;;;;12.06;100.00;100836.44;4989887;28;20383;-64
2023/05/10 06:34:13;;;;;;;37.38;27.00;;;;;;;12.11;100.00;100849.56;4964578;28;20019;-64
2023/05/10 06:36:38;;;;;;;33.92;27.45;;;;;;;12.13;100.00;100843.59;4976683;28;20037;-64
2023/05/10 06:39:04;;;;;;;37.05;27.70;;;;;;;12.13;100.00;100843.59;4990309;28;20105;-64
2023/05/10 06:41:29;;;;;;;38.40;27.95;;;;;;;12.15;100.00;100850.53;4987715;28;20489;-64
2023/05/10 06:43:54;;;;;;;34.95;28.42;;;;;;;12.15;100.00;100851.41;4990111;28;20569;-64
2023/05/10 06:46:19;;;;;;;40.17;29.73;;;;;;;12.13;100.00;100847.91;4986876;28;20041;-64
2023/05/10 06:48:45;;;;;;;40.03;29.20;;;;;;;12.11;100.00;100850.47;4982630;28;20030;-64
2023/05/10 06:51:10;;;;;;;36.38;28.83;;;;;;;12.10;100.00;100856.50;4989606;28;20022;-64
2023/05/10 06:53:36;;;;;;;36.72;28.63;;;;;;;12.11;100.00;100854.75;4979033;28;20439;-64
2023/05/10 06:56:02;;;;;;;40.60;30.73;;;;;;;12.10;100.00;100859.09;4988996;28;20455;-64
2023/05/10 06:58:28;;;;;;;40.53;30.17;;;;;;;12.12;100.00;100856.53;4978318;28;20386;-64
2023/05/10 07:00:53;;;;;;;39.85;32.65;;;;;;;12.13;100.00;100856.56;4988403;28;20025;-64
2023/05/10 07:03:18;;;;;;;40.67;31.33;;;;;;;12.16;100.00;100862.69;4981701;28;20062;-64
2023/05/10 07:05:44;;;;;;;39.85;30.70;;;;;;;12.17;100.00;100865.31;4976547;28;20041;-64
2023/05/10 07:08:09;;;;;;;40.55;30.85;;;;;;;12.19;100.00;100873.16;4968686;28;20056;-64
2023/05/10 07:10:34;;;;;;;36.28;30.85;;;;;;;12.17;100.00;100869.63;4985234;28;20492;-64
2023/05/10 07:13:01;;;;;;;38.40;29.88;;;;;;;12.18;100.00;100877.47;4982626;28;20067;-64
2023/05/10 07:15:26;;;;;;;40.53;32.45;;;;;;;12.20;100.00;100870.59;4983087;28;20435;-64
2023/05/10 07:17:52;;;;;;;39.15;32.05;;;;;;;12.22;100.00;100879.31;4977440;28;20034;-64
2023/05/10 07:20:17;;;;;;;41.45;32.33;;;;;;;12.25;100.00;100883.69;4973490;28;20853;-64
2023/05/10 07:22:43;;;;;;;37.50;30.38;;;;;;;12.25;100.00;100879.38;4989449;28;20381;-64
2023/05/10 07:25:08;;;;;;;39.13;31.05;;;;;;;12.24;100.00;100889.75;4977455;28;20031;-64
2023/05/10 07:27:34;;;;;;;39.40;31.85;;;;;;;12.27;100.00;100891.56;4988722;28;20022;-64
2023/05/10 07:30:00;;;;;;;39.63;31.63;;;;;;;12.30;100.00;100891.63;4988274;28;20038;-64
2023/05/10 07:32:25;;;;;;;42.67;31.02;;;;;;;12.29;100.00;100893.34;4968245;28;20159;-64
2023/05/10 07:34:50;;;;;;;40.88;30.42;;;;;;;12.28;100.00;100888.09;4972168;28;20031;-64
2023/05/10 07:37:16;;;;;;;35.22;29.02;;;;;;;12.28;100.00;100898.50;4986088;28;20030;-64
2023/05/10 07:39:41;;;;;;;40.60;30.23;;;;;;;12.29;100.00;100893.34;4986770;28;20041;-64
2023/05/10 07:42:07;;;;;;;36.17;28.70;;;;;;;12.28;100.00;100888.09;4988713;28;20105;-63
2023/05/10 07:44:32;;;;;;;35.63;28.60;;;;;;;12.29;100.00;100897.63;4988046;28;20117;-64
2023/05/10 07:46:57;;;;;;;35.85;27.38;;;;;;;12.30;100.00;100902.00;4989150;28;20046;-64
2023/05/10 07:49:26;;;;;;;37.58;27.00;;;;;;;12.32;100.00;100900.34;4976167;28;20109;-64
2023/05/10 07:51:51;;;;;;;33.33;25.08;;;;;;;12.31;100.00;100907.25;4988609;28;20052;-64
2023/05/10 07:54:17;;;;;;;37.78;26.52;;;;;;;12.30;100.00;100910.69;4988317;28;20030;-64
2023/05/10 07:56:46;;;;;;;27.73;23.23;;;;;;;12.29;100.00;100910.63;4988187;28;20014;-64
2023/05/10 07:59:15;;;;;;;30.55;24.98;;;;;;;12.27;100.00;100909.75;4987893;28;20085;-64
2023/05/10 08:01:41;;;;;;;27.10;23.15;;;;;;;12.28;100.00;100914.09;4988533;28;20050;-64
2023/05/10 08:04:07;;;;;;;26.13;21.92;;;;;;;12.30;100.00;100928.00;4986675;28;20382;-64
2023/05/10 08:06:32;;;;;;;27.85;22.13;;;;;;;12.28;100.00;100920.16;4987976;28;20073;-64
2023/05/10 08:08:57;;;;;;;34.83;23.42;;;;;;;12.29;100.00;100931.41;4988136;28;20027;-64
2023/05/10 08:11:23;;;;;;;27.15;21.52;;;;;;;12.30;100.00;100934.09;4983928;28;20105;-64
2023/05/10 08:13:50;;;;;;;24.58;21.30;;;;;;;12.29;100.00;100932.31;4986005;28;20038;-64
2023/05/10 08:16:16;;;;;;;23.77;21.30;;;;;;;12.29;100.00;100934.91;4987239;28;20049;-64
2023/05/10 08:18:46;;;;;;;26.17;21.85;;;;;;;12.30;100.00;100933.19;4987151;28;20030;-64
2023/05/10 08:21:12;;;;;;;23.55;20.50;;;;;;;12.32;100.00;100939.31;4979845;28;20026;-64
2023/05/10 08:23:37;;;;;;;23.42;20.88;;;;;;;12.33;100.00;100939.34;4985858;28;20026;-64
2023/05/10 08:26:03;;;;;;;22.33;20.13;;;;;;;12.34;100.00;100942.84;4988360;28;20138;-64
2023/05/10 08:28:28;;;;;;;22.48;18.90;;;;;;;12.36;100.00;100952.41;4987918;28;20022;-64
2023/05/10 08:30:54;;;;;;;23.42;19.27;;;;;;;12.38;100.00;100957.66;4988268;28;20022;-64
2023/05/10 08:33:19;;;;;;;21.48;19.23;;;;;;;12.38;100.00;100952.44;4986040;28;20379;-64
2023/05/10 08:35:44;;;;;;;23.10;17.40;;;;;;;12.42;100.00;100956.00;4987099;28;20018;-64
2023/05/10 08:38:10;;;;;;;20.48;17.83;;;;;;;12.45;100.00;100953.50;4986531;28;20587;-64
2023/05/10 08:40:37;;;;;;;22.33;17.23;;;;;;;12.51;100.00;100955.38;4986681;28;20162;-64
2023/05/10 08:43:08;;;;;;;22.98;17.70;;;;;;;12.58;100.00;100955.59;4983489;28;20226;-64
2023/05/10 08:45:38;;;;;;;19.35;16.42;;;;;;;12.64;100.00;100960.06;4987232;28;20557;-64
2023/05/10 08:48:05;;;;;;;18.33;16.52;;;;;;;12.66;100.00;100963.59;4985546;28;20346;-64
2023/05/10 08:50:31;;;;;;;16.15;14.55;;;;;;;12.64;100.00;100965.25;4986858;28;20073;-64
2023/05/10 08:53:00;;;;;;;15.55;13.68;;;;;;;12.57;100.00;100964.22;4976808;28;20450;-64
2023/05/10 08:55:27;;;;;;;18.45;14.63;;;;;;;12.62;100.00;100961.75;4987931;28;20548;-65
2023/05/10 08:57:52;;;;;;;13.45;12.15;;;;;;;12.59;100.00;100964.28;4987659;28;20405;-64
2023/05/10 09:00:19;;;;;;;15.55;12.43;;;;;;;12.57;100.00;100972.03;4988240;28;20029;-64
2023/05/10 09:02:45;;;;;;;18.35;13.02;;;;;;;12.59;100.00;100972.06;4984101;28;20202;-64
2023/05/10 09:05:11;;;;;;;13.90;12.43;;;;;;;12.52;100.00;100970.16;4988037;28;20450;-64
2023/05/10 09:07:37;;;;;;;12.40;10.95;;;;;;;12.54;100.00;100963.28;4986601;28;20022;-64
2023/05/10 09:10:04;;;;;;;14.45;12.20;;;;;;;12.55;100.00;100978.00;4988028;28;20032;-64
2023/05/10 09:12:30;;;;;;;14.43;10.95;;;;;;;12.59;100.00;100972.06;4987451;28;20023;-64
2023/05/10 09:14:56;;;;;;;12.00;10.75;;;;;;;12.62;100.00;100972.13;4986871;28;20018;-64
2023/05/10 09:17:23;;;;;;;14.20;11.15;;;;;;;12.65;100.00;100974.81;4985891;28;20106;-64
2023/05/10 09:19:49;;;;;;;12.45;9.40;;;;;;;12.64;100.00;100975.66;4978083;28;20023;-64
2023/05/10 09:22:14;;;;;;;11.98;10.18;;;;;;;12.72;100.00;100976.72;4987018;28;20022;-64
2023/05/10 09:24:44;;;;;;;12.38;9.95;;;;;;;12.80;100.00;100982.13;4977774;28;20526;-64
2023/05/10 09:27:10;;;;;;;13.23;9.77;;;;;;;12.85;100.00;100979.63;4981600;28;20398;-64
2023/05/10 09:29:44;;;;;;;10.75;9.13;;;;;;;12.92;100.00;100981.53;4979379;28;20260;-64
2023/05/10 09:32:10;;;;;;;10.43;8.73;;;;;;;12.95;100.00;100981.59;4987144;28;20030;-65
2023/05/10 09:34:39;;;;;;;10.30;8.95;;;;;;;12.98;100.00;100988.63;4976308;28;20018;-64
2023/05/10 09:37:05;;;;;;;9.80;8.35;;;;;;;13.04;100.00;100987.91;4986938;28;20109;-64
2023/05/10 09:39:31;;;;;;;9.60;8.20;;;;;;;13.07;100.00;100987.97;4987657;28;20109;-64
2023/05/10 09:41:58;;;;;;;8.90;8.05;;;;;;;13.11;100.00;100987.22;4987064;28;20024;-64
2023/05/10 09:44:25;;;;;;;9.63;8.68;;;;;;;13.16;100.00;100990.78;4990695;28;20347;-64
2023/05/10 09:46:52;;;;;;;13.15;10.05;;;;;;;13.23;100.00;100990.91;4990447;28;20023;-64
2023/05/10 09:49:18;;;;;;;11.35;9.40;;;;;;;13.27;100.00;101000.56;4989578;28;20026;-64
2023/05/10 09:51:44;;;;;;;9.73;8.82;;;;;;;13.31;100.00;100989.41;4991660;28;20077;-64
2023/05/10 09:54:11;;;;;;;10.98;9.93;;;;;;;13.38;100.00;100993.00;4989913;28;20030;-64
2023/05/10 09:56:38;;;;;;;10.43;9.43;;;;;;;13.41;100.00;100990.47;4991760;28;20014;-64
2023/05/10 09:59:05;;;;;;;9.45;8.57;;;;;;;13.41;100.00;100986.16;4991058;28;20031;-64
2023/05/10 10:01:30;;;;;;;11.48;9.80;;;;;;;13.42;100.00;100993.09;4991210;28;20141;-64
2023/05/10 10:03:57;;;;;;;10.75;9.73;;;;;;;13.44;100.00;100995.75;4990547;28;20172;-64
2023/05/10 10:06:23;;;;;;;13.38;10.40;;;;;;;13.40;100.00;100994.78;4991550;28;20502;-64
2023/05/10 10:08:49;;;;;;;10.85;9.98;;;;;;;13.34;100.00;100999.88;4990393;28;20062;-64
2023/05/10 10:11:14;;;;;;;11.63;10.43;;;;;;;13.30;100.00;100998.03;4990945;28;20494;-64
2023/05/10 10:13:40;;;;;;;14.43;10.60;;;;;;;13.26;100.00;100996.22;4990513;28;20022;-64
2023/05/10 10:16:06;;;;;;;12.27;9.98;;;;;;;13.20;100.00;101008.22;4983282;28;20039;-64
2023/05/10 10:18:31;;;;;;;10.55;9.50;;;;;;;13.18;100.00;101003.84;4984546;28;20057;-64
2023/05/10 10:20:57;;;;;;;11.85;10.10;;;;;;;13.16;100.00;101000.31;4990921;28;20053;-64
2023/05/10 10:23:23;;;;;;;11.02;9.90;;;;;;;13.17;100.00;101000.34;4989276;28;20356;-64
2023/05/10 10:25:49;;;;;;;13.63;11.50;;;;;;;13.20;100.00;100997.81;4987886;28;20040;-64
2023/05/10 10:28:34;;;;;;;11.05;10.00;;;;;;;13.29;100.00;101001.50;4984379;28;20097;-64
2023/05/10 10:31:12;;;;;;;12.75;11.55;;;;;;;13.40;100.00;101004.34;4980279;28;20382;-64
2023/05/10 10:33:56;;;;;;;14.50;11.18;;;;;;;13.52;100.00;101003.72;4990322;28;20015;-64
2023/05/10 10:36:22;;;;;;;17.25;12.55;;;;;;;13.62;100.00;101000.50;4990805;28;20102;-64
2023/05/10 10:38:47;;;;;;;13.95;11.85;;;;;;;13.72;100.00;101006.81;4984576;28;20033;-64
2023/05/10 10:41:33;;;;;;;11.85;10.30;;;;;;;13.77;100.00;101006.91;4974608;28;20061;-64
2023/05/10 10:44:24;;;;;;;14.18;11.27;;;;;;;13.79;100.00;100993.09;4981646;28;20014;-64
2023/05/10 10:47:05;;;;;;;11.30;10.20;;;;;;;13.80;100.00;101000.03;4990806;28;20442;-64
2023/05/10 10:49:40;;;;;;;11.55;9.80;;;;;;;13.78;100.00;101000.88;4977579;28;20406;-64
2023/05/10 10:52:26;;;;;;;11.55;10.45;;;;;;;13.78;100.00;101001.72;4990468;28;20529;-64
2023/05/10 10:55:05;;;;;;;11.45;10.35;;;;;;;13.75;100.00;101000.78;4990279;28;20092;-64
2023/05/10 10:58:00;;;;;;;13.82;9.63;;;;;;;13.77;100.00;101004.31;4990089;28;20054;-64
2023/05/10 11:00:40;;;;;;;11.10;9.55;;;;;;;13.81;100.00;101000.94;4990146;28;20026;-64
2023/05/10 11:03:13;;;;;;;11.57;9.40;;;;;;;13.83;100.00;100994.03;4978922;28;20096;-64